Afton, California
Current Conditions -  °F | °C
As of 4:53 AM on Thursday 30 Oct 2014 (Local Time) from KOVE Reporting Station
Clear Clear  
Wind Chill: 17°   Ceiling: Unl
Heat Index: 17°   Visibility: 10mi
Dew Point: 11°   Wind: 0mph
Humidity: 70%   Direction: NA
Pressure: 29.96"   Gusts: NA
Location:  39.4608°N, 121.937°W
Report Text: KOVE 301153Z AUTO 00000KT 10SM CLR 17/11 A2996 RMK AO2 SLP145 T01670111 10178 20139 56010
Loading
Personal Weather Stations






























Interactive Weather Map New forecast layout! Learn more

10-Day Weather Forecast

Advertisements
Track Severe Weather on mobile